createdAt,value
2017-08-19T00:00:03.258Z,12.60
2017-08-19T00:00:58.277Z,12.62
2017-08-19T00:01:58.259Z,12.61
2017-08-19T00:02:53.330Z,12.57
2017-08-19T00:03:48.369Z,12.60
2017-08-19T00:04:48.396Z,12.54
2017-08-19T00:05:43.407Z,12.52
2017-08-19T00:06:37.404Z,12.56
2017-08-19T00:07:37.511Z,12.52
2017-08-19T00:08:31.495Z,12.50
2017-08-19T00:09:25.531Z,12.50
2017-08-19T00:10:19.585Z,12.56
2017-08-19T00:11:13.618Z,12.57
2017-08-19T00:12:02.735Z,12.54
2017-08-19T00:12:50.692Z,12.51
2017-08-19T00:13:39.736Z,12.56
2017-08-19T00:14:33.697Z,12.59
2017-08-19T00:15:28.795Z,12.60
2017-08-19T00:16:17.842Z,12.58
2017-08-19T00:17:11.916Z,12.50
2017-08-19T00:18:05.995Z,12.46
2017-08-19T00:19:05.973Z,12.46
2017-08-19T00:20:01.013Z,12.44
2017-08-19T00:20:54.956Z,12.46
2017-08-19T00:21:49.119Z,12.46
2017-08-19T00:22:49.140Z,12.39
2017-08-19T00:23:44.094Z,12.38
2017-08-19T00:24:44.049Z,12.36
2017-08-19T00:25:39.267Z,12.36
2017-08-19T00:26:34.254Z,12.30
2017-08-19T00:27:34.294Z,12.26
2017-08-19T00:28:29.435Z,12.30
2017-08-19T00:29:24.394Z,12.30
2017-08-19T00:30:25.410Z,12.31
2017-08-19T00:31:25.460Z,12.28
2017-08-19T00:32:25.447Z,12.20
2017-08-19T00:33:20.468Z,12.24
2017-08-19T00:34:14.390Z,12.26
2017-08-19T00:35:15.559Z,12.26
2017-08-19T00:36:15.625Z,12.22
2017-08-19T00:37:15.600Z,12.16
2017-08-19T00:38:10.576Z,12.18
2017-08-19T00:39:04.678Z,12.16
2017-08-19T00:40:05.703Z,12.14
2017-08-19T00:41:05.680Z,12.13
2017-08-19T00:42:00.690Z,12.14
2017-08-19T00:43:00.805Z,12.22
2017-08-19T00:43:49.832Z,12.28
2017-08-19T00:44:38.875Z,12.24
2017-08-19T00:45:27.916Z,12.21
2017-08-19T00:46:15.803Z,12.22
2017-08-19T00:47:04.719Z,12.19
2017-08-19T00:48:00.058Z,12.24
2017-08-19T00:48:49.042Z,12.24
2017-08-19T00:49:37.915Z,12.24
2017-08-19T00:50:37.883Z,12.20
2017-08-19T00:51:25.909Z,12.20
2017-08-19T00:52:14.058Z,12.16
2017-08-19T00:53:08.380Z,12.16
2017-08-19T00:54:08.279Z,12.20
2017-08-19T00:54:57.180Z,12.24
2017-08-19T00:55:45.173Z,12.23
2017-08-19T00:56:34.450Z,12.22
2017-08-19T00:57:28.593Z,12.22
2017-08-19T00:58:28.597Z,12.24
2017-08-19T00:59:22.366Z,12.24
2017-08-19T01:00:22.467Z,12.22
2017-08-19T01:01:17.550Z,12.14
2017-08-19T01:02:12.344Z,12.12
2017-08-19T01:03:12.677Z,12.12
2017-08-19T01:04:07.417Z,12.08
2017-08-19T01:05:02.523Z,12.07
2017-08-19T01:06:03.598Z,12.09
2017-08-19T01:07:03.606Z,12.10
2017-08-19T01:08:03.879Z,12.10
2017-08-19T01:08:58.698Z,12.12
2017-08-19T01:09:53.659Z,12.22
2017-08-19T01:10:47.803Z,12.27
2017-08-19T01:11:42.741Z,12.25
2017-08-19T01:12:37.955Z,12.22
2017-08-19T01:13:33.021Z,12.26
2017-08-19T01:14:26.877Z,12.25
2017-08-19T01:15:21.828Z,12.23
2017-08-19T01:16:15.976Z,12.21
2017-08-19T01:17:15.877Z,12.25
2017-08-19T01:18:10.257Z,12.22
2017-08-19T01:19:10.044Z,12.24
2017-08-19T01:20:04.045Z,12.25
2017-08-19T01:20:59.188Z,12.28
2017-08-19T01:21:54.194Z,12.28
2017-08-19T01:22:54.397Z,12.26
2017-08-19T01:23:49.442Z,12.28
2017-08-19T01:24:44.507Z,12.25
2017-08-19T01:25:45.243Z,12.21
2017-08-19T01:26:45.598Z,12.20
2017-08-19T01:27:45.563Z,12.15
2017-08-19T01:28:40.334Z,12.12
2017-08-19T01:29:34.596Z,12.08
2017-08-19T01:30:35.512Z,12.12
2017-08-19T01:31:29.547Z,12.19
2017-08-19T01:32:17.539Z,12.22
2017-08-19T01:33:05.868Z,12.16
2017-08-19T01:33:54.485Z,12.17
2017-08-19T01:34:42.878Z,12.14
2017-08-19T01:35:30.636Z,12.13
2017-08-19T01:36:18.662Z,12.14
2017-08-19T01:37:19.740Z,12.18
2017-08-19T01:38:19.737Z,12.22
2017-08-19T01:39:14.779Z,12.26
2017-08-19T01:40:09.880Z,12.26
2017-08-19T01:41:09.845Z,12.26
2017-08-19T01:42:04.870Z,12.25
2017-08-19T01:43:06.210Z,12.26
2017-08-19T01:44:07.105Z,12.28
2017-08-19T01:44:54.981Z,12.29
2017-08-19T01:45:43.311Z,12.24
2017-08-19T01:46:37.280Z,12.18
2017-08-19T01:47:37.385Z,12.17
2017-08-19T01:48:31.386Z,12.21
2017-08-19T01:49:37.431Z,12.24
2017-08-19T01:50:31.180Z,12.23
2017-08-19T01:51:20.523Z,12.15
2017-08-19T01:52:09.381Z,12.14
2017-08-19T01:52:57.587Z,12.14
2017-08-19T01:53:57.366Z,12.14
2017-08-19T01:54:51.598Z,12.20
2017-08-19T01:55:51.558Z,12.19
2017-08-19T01:56:40.686Z,12.16
2017-08-19T01:57:28.798Z,12.10
2017-08-19T01:58:28.469Z,12.15
2017-08-19T01:59:22.777Z,12.14
2017-08-19T02:00:17.778Z,12.14
2017-08-19T02:01:11.888Z,12.13
2017-08-19T02:02:06.659Z,12.16
2017-08-19T02:02:55.989Z,12.14
2017-08-19T02:03:44.718Z,12.13
2017-08-19T02:04:45.873Z,12.14
2017-08-19T02:05:40.880Z,12.12
2017-08-19T02:06:28.798Z,12.09
2017-08-19T02:07:17.908Z,12.04
2017-08-19T02:08:06.178Z,12.02
2017-08-19T02:08:53.990Z,12.00
2017-08-19T02:09:48.019Z,12.02
2017-08-19T02:10:48.019Z,12.10
2017-08-19T02:11:54.277Z,12.06
2017-08-19T02:12:49.327Z,12.03
2017-08-19T02:13:49.159Z,12.09
2017-08-19T02:14:44.459Z,12.12
2017-08-19T02:15:39.332Z,12.08
2017-08-19T02:16:39.180Z,12.08
2017-08-19T02:17:33.442Z,12.10
2017-08-19T02:18:22.411Z,12.08
2017-08-19T02:19:10.379Z,12.12
2017-08-19T02:20:04.417Z,12.11
2017-08-19T02:20:58.376Z,12.10
2017-08-19T02:21:46.612Z,12.13
2017-08-19T02:22:34.786Z,12.09
2017-08-19T02:23:22.506Z,12.11
2017-08-19T02:24:11.538Z,12.08
2017-08-19T02:24:59.892Z,12.10
2017-08-19T02:25:47.591Z,12.08
2017-08-19T02:26:35.851Z,12.06
2017-08-19T02:27:24.999Z,12.06
2017-08-19T02:28:18.953Z,12.10
2017-08-19T02:29:06.851Z,12.08
2017-08-19T02:29:54.808Z,12.08
2017-08-19T02:30:43.139Z,12.03
2017-08-19T02:31:36.901Z,12.02
2017-08-19T02:32:31.268Z,12.00
2017-08-19T02:33:20.150Z,12.03
2017-08-19T02:34:08.025Z,12.02
2017-08-19T02:34:56.327Z,12.02
2017-08-19T02:35:44.401Z,12.02
2017-08-19T02:36:33.240Z,12.03
2017-08-19T02:37:21.479Z,12.00
2017-08-19T02:38:09.502Z,11.95
2017-08-19T02:38:58.434Z,11.96
2017-08-19T02:39:46.338Z,11.93
2017-08-19T02:40:35.610Z,12.00
2017-08-19T02:41:30.679Z,12.03
2017-08-19T02:42:30.635Z,12.00
2017-08-19T02:43:30.674Z,12.04
2017-08-19T02:44:19.547Z,12.01
2017-08-19T02:45:08.583Z,12.00
2017-08-19T02:45:56.832Z,11.99
2017-08-19T02:46:45.824Z,11.96
2017-08-19T02:47:33.955Z,11.96
2017-08-19T02:48:27.729Z,11.96
2017-08-19T02:49:21.997Z,11.93
2017-08-19T02:50:10.068Z,11.93
2017-08-19T02:50:57.843Z,11.90
2017-08-19T02:51:46.006Z,11.90
2017-08-19T02:52:41.211Z,11.90
2017-08-19T02:53:35.165Z,11.97
2017-08-19T02:54:41.194Z,11.96
2017-08-19T02:55:36.272Z,11.96
2017-08-19T02:56:30.051Z,11.96
2017-08-19T02:57:24.016Z,11.96
2017-08-19T02:58:18.134Z,11.93
2017-08-19T02:59:12.085Z,11.97
2017-08-19T03:00:13.189Z,11.97
2017-08-19T03:01:08.186Z,12.00
2017-08-19T03:02:02.462Z,12.02
2017-08-19T03:03:02.528Z,12.03
2017-08-19T03:03:57.540Z,12.06
2017-08-19T03:04:51.503Z,12.04
2017-08-19T03:05:51.368Z,11.98
2017-08-19T03:06:51.676Z,11.96
2017-08-19T03:07:46.759Z,11.99
2017-08-19T03:08:40.707Z,12.00
2017-08-19T03:09:35.758Z,12.02
2017-08-19T03:10:23.824Z,12.00
2017-08-19T03:11:12.895Z,12.00
2017-08-19T03:12:07.872Z,12.00
2017-08-19T03:12:56.832Z,11.98
2017-08-19T03:13:51.886Z,11.95
2017-08-19T03:14:39.748Z,11.91
2017-08-19T03:15:39.772Z,11.88
2017-08-19T03:16:45.892Z,11.90
2017-08-19T03:17:41.153Z,11.91
2017-08-19T03:18:35.839Z,11.89
2017-08-19T03:19:24.862Z,11.92
2017-08-19T03:20:24.950Z,11.95
2017-08-19T03:21:19.009Z,11.92
2017-08-19T03:22:19.019Z,11.87
2017-08-19T03:23:14.519Z,11.81
2017-08-19T03:24:03.305Z,11.78
2017-08-19T03:24:51.323Z,11.78
2017-08-19T03:25:40.293Z,11.78
2017-08-19T03:26:28.353Z,11.81
2017-08-19T03:27:17.471Z,11.81
2017-08-19T03:28:05.511Z,11.80
2017-08-19T03:28:59.540Z,11.85
2017-08-19T03:29:59.504Z,11.90
2017-08-19T03:30:59.657Z,11.96
2017-08-19T03:31:47.665Z,11.96
2017-08-19T03:32:41.667Z,11.96
2017-08-19T03:33:29.637Z,11.98
2017-08-19T03:34:23.792Z,12.01
2017-08-19T03:35:12.813Z,11.96
2017-08-19T03:36:06.901Z,11.90
2017-08-19T03:37:00.599Z,11.90
2017-08-19T03:37:55.007Z,11.87
2017-08-19T03:38:43.941Z,11.85
2017-08-19T03:39:43.804Z,11.85
2017-08-19T03:40:38.829Z,11.84
2017-08-19T03:41:32.838Z,11.84
2017-08-19T03:42:33.075Z,11.89
2017-08-19T03:43:26.949Z,11.89
2017-08-19T03:44:21.964Z,11.88
2017-08-19T03:45:16.946Z,11.91
2017-08-19T03:46:05.069Z,11.90
2017-08-19T03:47:00.026Z,11.88
2017-08-19T03:47:54.325Z,11.88
2017-08-19T03:48:55.107Z,11.92
2017-08-19T03:49:55.158Z,11.92
2017-08-19T03:50:49.601Z,11.90
2017-08-19T03:51:43.306Z,11.86
2017-08-19T03:52:43.216Z,11.83
2017-08-19T03:53:43.412Z,11.80
2017-08-19T03:54:44.391Z,11.78
2017-08-19T03:55:38.466Z,11.76
2017-08-19T03:56:27.385Z,11.74
2017-08-19T03:57:27.717Z,11.74
2017-08-19T03:58:16.453Z,11.74
2017-08-19T03:59:11.464Z,11.74
2017-08-19T04:00:00.638Z,11.76
2017-08-19T04:01:00.535Z,11.79
2017-08-19T04:01:54.540Z,11.78
2017-08-19T04:02:54.847Z,11.74
2017-08-19T04:03:49.626Z,11.74
2017-08-19T04:04:49.741Z,11.72
2017-08-19T04:05:43.752Z,11.74
2017-08-19T04:06:37.763Z,11.71
2017-08-19T04:07:33.096Z,11.70
2017-08-19T04:08:20.816Z,11.68
2017-08-19T04:09:20.871Z,11.66
2017-08-19T04:10:20.810Z,11.67
2017-08-19T04:11:14.980Z,11.72
2017-08-19T04:12:14.929Z,11.72
2017-08-19T04:13:10.011Z,11.74
2017-08-19T04:14:05.008Z,11.76
2017-08-19T04:15:11.044Z,11.79
2017-08-19T04:16:05.205Z,11.80
2017-08-19T04:16:54.065Z,11.76
2017-08-19T04:17:49.247Z,11.80
2017-08-19T04:18:44.204Z,11.80
2017-08-19T04:19:33.201Z,11.79
2017-08-19T04:20:22.365Z,11.77
2017-08-19T04:21:11.341Z,11.76
2017-08-19T04:22:06.380Z,11.75
2017-08-19T04:23:01.371Z,11.69
2017-08-19T04:24:02.524Z,11.66
2017-08-19T04:24:57.395Z,11.72
2017-08-19T04:25:57.530Z,11.75
2017-08-19T04:26:51.580Z,11.74
2017-08-19T04:27:40.550Z,11.78
2017-08-19T04:28:40.728Z,11.78
2017-08-19T04:29:28.659Z,11.76
2017-08-19T04:30:22.599Z,11.79
2017-08-19T04:31:16.741Z,11.82
2017-08-19T04:32:10.705Z,11.81
2017-08-19T04:33:05.784Z,11.80
2017-08-19T04:33:59.771Z,11.80
2017-08-19T04:34:54.846Z,11.89
2017-08-19T04:35:55.002Z,11.92
2017-08-19T04:36:54.914Z,11.96
2017-08-19T04:37:48.958Z,11.92
2017-08-19T04:38:43.976Z,11.96
2017-08-19T04:39:43.996Z,11.84
2017-08-19T04:40:38.121Z,11.81
2017-08-19T04:41:32.102Z,11.75
2017-08-19T04:42:26.186Z,11.88
2017-08-19T04:43:20.202Z,11.88
2017-08-19T04:44:21.364Z,11.94
2017-08-19T04:45:21.498Z,11.85
2017-08-19T04:46:21.578Z,11.87
2017-08-19T04:47:21.263Z,11.86
2017-08-19T04:48:21.315Z,11.81
2017-08-19T04:49:15.344Z,11.80
2017-08-19T04:50:10.522Z,11.85
2017-08-19T04:51:04.464Z,11.86
2017-08-19T04:51:59.697Z,11.88
2017-08-19T04:52:53.496Z,11.84
2017-08-19T04:53:41.563Z,11.90
2017-08-19T04:54:42.568Z,11.96
2017-08-19T04:55:31.709Z,12.02
2017-08-19T04:56:26.796Z,11.95
2017-08-19T04:57:20.932Z,12.04
2017-08-19T04:58:20.823Z,12.00
2017-08-19T04:59:15.803Z,11.98
2017-08-19T05:00:10.791Z,11.98
2017-08-19T05:00:59.798Z,12.02
2017-08-19T05:01:54.868Z,12.00
2017-08-19T05:02:54.939Z,12.08
2017-08-19T05:03:48.990Z,12.08
2017-08-19T05:04:49.143Z,12.10
2017-08-19T05:05:43.211Z,12.11
2017-08-19T05:06:38.212Z,12.14
2017-08-19T05:07:38.273Z,12.17
2017-08-19T05:08:33.188Z,12.18
2017-08-19T05:09:28.136Z,12.12
2017-08-19T05:10:23.415Z,12.20
2017-08-19T05:11:23.259Z,12.26
2017-08-19T05:12:17.403Z,12.26
2017-08-19T05:13:06.286Z,12.26
2017-08-19T05:14:01.497Z,12.32
2017-08-19T05:14:55.531Z,12.40
2017-08-19T05:15:55.392Z,12.46
2017-08-19T05:16:50.587Z,12.58
2017-08-19T05:17:44.505Z,12.68
2017-08-19T05:18:44.727Z,12.67
2017-08-19T05:19:38.621Z,12.76
2017-08-19T05:20:32.637Z,12.80
2017-08-19T05:21:26.694Z,12.94
2017-08-19T05:22:14.672Z,12.87
2017-08-19T05:23:14.647Z,12.92
2017-08-19T05:24:09.685Z,13.07
2017-08-19T05:24:58.806Z,12.98
2017-08-19T05:25:52.811Z,12.90
2017-08-19T05:26:47.876Z,13.00
2017-08-19T05:27:47.915Z,13.03
2017-08-19T05:28:36.916Z,13.15
2017-08-19T05:29:31.981Z,13.26
2017-08-19T05:30:32.288Z,13.26
2017-08-19T05:31:27.025Z,13.35
2017-08-19T05:32:21.251Z,13.62
2017-08-19T05:33:22.160Z,13.58
2017-08-19T05:34:16.217Z,13.48
2017-08-19T05:35:10.344Z,13.40
2017-08-19T05:36:05.198Z,13.39
2017-08-19T05:36:53.273Z,13.43
2017-08-19T05:37:42.418Z,13.64
2017-08-19T05:38:31.590Z,13.75
2017-08-19T05:39:19.649Z,14.00
2017-08-19T05:40:08.684Z,14.10
2017-08-19T05:41:09.555Z,13.80
2017-08-19T05:42:03.527Z,13.68
2017-08-19T05:42:57.622Z,13.68
2017-08-19T05:43:52.869Z,13.73
2017-08-19T05:44:40.803Z,13.96
2017-08-19T05:45:34.875Z,14.02
2017-08-19T05:46:35.045Z,14.03
2017-08-19T05:47:29.095Z,14.07
2017-08-19T05:48:29.104Z,13.97
2017-08-19T05:49:18.174Z,14.04
2017-08-19T05:50:13.172Z,14.11
2017-08-19T05:51:13.203Z,14.20
2017-08-19T05:52:08.411Z,14.20
2017-08-19T05:53:02.301Z,14.23
2017-08-19T05:54:02.338Z,14.16
2017-08-19T05:55:02.410Z,14.18
2017-08-19T05:55:57.452Z,14.30
2017-08-19T05:56:58.538Z,14.25
2017-08-19T05:57:53.467Z,14.45
2017-08-19T05:58:54.562Z,14.42
2017-08-19T05:59:49.613Z,14.54
2017-08-19T06:00:43.606Z,14.96
2017-08-19T06:01:44.698Z,15.08
2017-08-19T06:02:50.654Z,15.28
2017-08-19T06:03:44.817Z,15.16
2017-08-19T06:04:45.848Z,15.26
2017-08-19T06:05:39.841Z,15.25
2017-08-19T06:06:33.916Z,15.18
2017-08-19T06:07:21.966Z,15.35
2017-08-19T06:08:09.904Z,15.56
2017-08-19T06:09:10.027Z,15.71
2017-08-19T06:10:04.113Z,15.70
2017-08-19T06:10:59.175Z,15.59
2017-08-19T06:11:54.185Z,15.65
2017-08-19T06:12:54.194Z,15.82
2017-08-19T06:13:48.205Z,15.97
2017-08-19T06:14:43.288Z,16.02
2017-08-19T06:15:31.276Z,15.84
2017-08-19T06:16:20.404Z,15.90
2017-08-19T06:17:14.440Z,15.76
2017-08-19T06:18:14.489Z,15.68
2017-08-19T06:19:08.468Z,15.62
2017-08-19T06:19:57.631Z,15.75
2017-08-19T06:20:57.568Z,15.78
2017-08-19T06:21:46.698Z,15.90
2017-08-19T06:22:40.744Z,16.26
2017-08-19T06:23:35.724Z,16.21
2017-08-19T06:24:30.844Z,16.20
2017-08-19T06:25:18.943Z,16.48
2017-08-19T06:26:19.952Z,16.71
2017-08-19T06:27:13.892Z,16.62
2017-08-19T06:28:07.997Z,16.84
2017-08-19T06:29:03.103Z,16.85
2017-08-19T06:30:03.100Z,16.78
2017-08-19T06:30:57.094Z,16.82
2017-08-19T06:31:52.141Z,16.86
2017-08-19T06:32:52.239Z,16.96
2017-08-19T06:33:47.189Z,17.18
2017-08-19T06:34:36.311Z,17.54
2017-08-19T06:35:36.291Z,17.87
2017-08-19T06:36:25.466Z,18.14
2017-08-19T06:37:20.393Z,18.20
2017-08-19T06:38:14.557Z,18.20
2017-08-19T06:39:08.579Z,18.00
2017-08-19T06:39:57.535Z,18.29
2017-08-19T06:40:46.557Z,18.21
2017-08-19T06:41:40.762Z,18.13
2017-08-19T06:42:40.818Z,17.54
2017-08-19T06:43:34.850Z,17.49
2017-08-19T06:44:28.783Z,17.08
2017-08-19T06:45:17.854Z,16.80
2017-08-19T06:46:11.909Z,16.68
2017-08-19T06:47:11.974Z,16.42
2017-08-19T06:48:07.100Z,16.19
2017-08-19T06:49:01.109Z,16.00
2017-08-19T06:50:01.184Z,15.74
2017-08-19T06:51:01.181Z,15.68
2017-08-19T06:51:56.203Z,15.60
2017-08-19T06:52:51.329Z,15.92
2017-08-19T06:53:40.297Z,16.62
2017-08-19T06:54:29.349Z,17.08
2017-08-19T06:55:23.383Z,17.34
2017-08-19T06:56:17.495Z,17.40
2017-08-19T06:57:06.444Z,17.14
2017-08-19T06:58:06.579Z,16.97
2017-08-19T06:58:55.663Z,16.92
2017-08-19T06:59:44.638Z,16.74
2017-08-19T07:00:44.725Z,16.48
2017-08-19T07:01:38.716Z,16.49
2017-08-19T07:02:32.805Z,16.12
2017-08-19T07:03:32.877Z,15.90
2017-08-19T07:04:26.851Z,15.80
2017-08-19T07:05:26.994Z,15.89
2017-08-19T07:06:20.914Z,15.85
2017-08-19T07:07:10.055Z,15.93
2017-08-19T07:08:11.040Z,15.78
2017-08-19T07:09:11.131Z,15.89
2017-08-19T07:10:06.110Z,15.74
2017-08-19T07:11:00.189Z,15.53
2017-08-19T07:12:00.270Z,15.46
2017-08-19T07:12:55.323Z,15.49
2017-08-19T07:13:50.414Z,15.37
2017-08-19T07:14:45.448Z,15.32
2017-08-19T07:15:33.389Z,15.33
2017-08-19T07:16:28.451Z,15.34
2017-08-19T07:17:23.497Z,15.42
2017-08-19T07:18:17.626Z,15.37
2017-08-19T07:19:12.632Z,15.42
2017-08-19T07:20:01.626Z,15.57
2017-08-19T07:20:55.726Z,15.82
2017-08-19T07:21:44.732Z,16.04
2017-08-19T07:22:39.817Z,15.99
2017-08-19T07:23:39.870Z,15.76
2017-08-19T07:24:33.928Z,15.59
2017-08-19T07:25:28.941Z,15.42
2017-08-19T07:26:30.003Z,15.34
2017-08-19T07:27:24.000Z,15.27
2017-08-19T07:28:19.083Z,15.25
2017-08-19T07:29:19.100Z,15.30
2017-08-19T07:30:13.280Z,15.28
2017-08-19T07:31:08.222Z,15.40
2017-08-19T07:32:03.190Z,15.44
2017-08-19T07:33:04.350Z,15.40
2017-08-19T07:33:58.335Z,15.34
2017-08-19T07:34:52.420Z,15.26
2017-08-19T07:35:52.438Z,15.11
2017-08-19T07:36:46.504Z,15.03
2017-08-19T07:37:46.527Z,14.98
2017-08-19T07:38:35.614Z,14.92
2017-08-19T07:39:24.522Z,14.93
2017-08-19T07:40:13.637Z,14.89
2017-08-19T07:41:08.688Z,14.80
2017-08-19T07:42:08.763Z,14.82
2017-08-19T07:43:03.794Z,14.88
2017-08-19T07:43:58.819Z,14.86
2017-08-19T07:44:47.838Z,14.86
2017-08-19T07:45:42.966Z,14.84
2017-08-19T07:46:42.910Z,14.78
2017-08-19T07:47:38.036Z,14.82
2017-08-19T07:48:33.027Z,14.86
2017-08-19T07:49:27.125Z,14.96
2017-08-19T07:50:22.130Z,15.00
2017-08-19T07:51:16.106Z,14.94
2017-08-19T07:52:10.186Z,14.92
2017-08-19T07:53:10.262Z,14.98
2017-08-19T07:54:04.334Z,15.20
2017-08-19T07:55:05.395Z,15.34
2017-08-19T07:56:06.408Z,15.64
2017-08-19T07:57:00.388Z,15.83
2017-08-19T07:57:54.430Z,15.94
2017-08-19T07:58:54.489Z,16.32
2017-08-19T07:59:54.509Z,16.57
2017-08-19T08:00:49.529Z,16.64
2017-08-19T08:01:38.588Z,16.32
2017-08-19T08:02:33.694Z,16.38
2017-08-19T08:03:22.752Z,16.12
2017-08-19T08:04:11.778Z,15.31
2017-08-19T08:05:05.791Z,14.94
2017-08-19T08:06:05.840Z,14.73
2017-08-19T08:07:00.853Z,14.88
2017-08-19T08:07:55.977Z,14.77
2017-08-19T08:08:50.023Z,14.78
2017-08-19T08:09:49.961Z,14.65
2017-08-19T08:10:39.139Z,14.85
2017-08-19T08:11:33.152Z,14.69
2017-08-19T08:12:27.139Z,14.70
2017-08-19T08:13:21.288Z,14.56
2017-08-19T08:14:16.299Z,14.60
2017-08-19T08:15:10.358Z,14.56
2017-08-19T08:16:10.427Z,14.29
2017-08-19T08:16:59.359Z,14.14
2017-08-19T08:17:54.467Z,14.07
2017-08-19T08:18:49.532Z,13.92
2017-08-19T08:19:43.601Z,14.10
2017-08-19T08:20:32.663Z,14.17
2017-08-19T08:21:26.648Z,14.62
2017-08-19T08:22:15.758Z,14.58
2017-08-19T08:23:09.811Z,14.28
2017-08-19T08:24:09.813Z,14.04
2017-08-19T08:24:58.831Z,14.43
2017-08-19T08:25:52.868Z,14.57
2017-08-19T08:26:52.916Z,14.74
2017-08-19T08:27:47.009Z,14.54
2017-08-19T08:28:47.019Z,14.13
2017-08-19T08:29:41.116Z,13.85
2017-08-19T08:30:42.122Z,13.95
2017-08-19T08:31:31.109Z,14.09
2017-08-19T08:32:31.219Z,14.35
2017-08-19T08:33:26.215Z,14.44
2017-08-19T08:34:21.351Z,14.50
2017-08-19T08:35:21.336Z,14.85
2017-08-19T08:36:10.413Z,14.51
2017-08-19T08:36:59.592Z,14.32
2017-08-19T08:37:54.490Z,14.28
2017-08-19T08:38:54.528Z,14.38
2017-08-19T08:39:43.638Z,14.60
2017-08-19T08:40:37.582Z,14.63
2017-08-19T08:41:37.558Z,14.82
2017-08-19T08:42:31.624Z,14.78
2017-08-19T08:43:25.783Z,14.68
2017-08-19T08:44:20.832Z,14.68
2017-08-19T08:45:09.837Z,14.46
2017-08-19T08:45:58.893Z,14.71
2017-08-19T08:46:47.911Z,14.92
2017-08-19T08:47:42.943Z,15.16
2017-08-19T08:48:49.021Z,14.96
2017-08-19T08:49:43.962Z,14.61
2017-08-19T08:50:38.097Z,14.70
2017-08-19T08:51:32.141Z,14.75
2017-08-19T08:52:21.200Z,14.42
2017-08-19T08:53:15.396Z,14.03
2017-08-19T08:54:10.266Z,14.09
2017-08-19T08:55:05.310Z,14.20
2017-08-19T08:55:53.384Z,14.33
2017-08-19T08:56:53.415Z,14.10
2017-08-19T08:57:47.451Z,14.00
2017-08-19T08:58:47.583Z,14.23
2017-08-19T08:59:47.494Z,14.03
2017-08-19T09:00:36.579Z,13.94
2017-08-19T09:01:24.636Z,14.19
2017-08-19T09:02:24.660Z,13.80
2017-08-19T09:03:13.649Z,14.60
2017-08-19T09:04:19.756Z,14.28
2017-08-19T09:05:14.726Z,14.86
2017-08-19T09:06:08.941Z,14.83
2017-08-19T09:07:03.887Z,14.78
2017-08-19T09:07:57.917Z,14.92
2017-08-19T09:08:53.033Z,15.36
2017-08-19T09:09:41.207Z,16.00
2017-08-19T09:10:35.095Z,16.47
2017-08-19T09:11:24.184Z,16.94
2017-08-19T09:12:18.215Z,17.83
2017-08-19T09:13:12.231Z,18.67
2017-08-19T09:14:07.263Z,18.98
2017-08-19T09:15:01.402Z,19.12
2017-08-19T09:15:56.369Z,18.02
2017-08-19T09:16:45.452Z,17.88
2017-08-19T09:17:39.545Z,17.24
2017-08-19T09:18:39.592Z,16.96
2017-08-19T09:19:34.631Z,16.90
2017-08-19T09:20:28.600Z,16.07
2017-08-19T09:21:28.702Z,16.25
2017-08-19T09:22:23.790Z,15.62
2017-08-19T09:23:18.761Z,15.48
2017-08-19T09:24:12.877Z,15.65
2017-08-19T09:25:06.883Z,15.98
2017-08-19T09:26:02.000Z,15.58
2017-08-19T09:27:02.021Z,14.96
2017-08-19T09:27:56.085Z,14.72
2017-08-19T09:28:56.135Z,14.35
2017-08-19T09:29:51.195Z,14.15
2017-08-19T09:30:45.173Z,14.05
2017-08-19T09:31:39.347Z,13.96
2017-08-19T09:32:34.307Z,13.88
2017-08-19T09:33:22.393Z,13.62
2017-08-19T09:34:22.415Z,13.48
2017-08-19T09:35:17.508Z,13.56
2017-08-19T09:36:11.582Z,13.36
2017-08-19T09:37:06.533Z,13.22
2017-08-19T09:38:01.634Z,13.26
2017-08-19T09:38:50.665Z,13.36
2017-08-19T09:39:44.712Z,13.27
2017-08-19T09:40:38.778Z,13.36
2017-08-19T09:41:33.834Z,13.48
2017-08-19T09:42:27.881Z,13.52
2017-08-19T09:43:15.995Z,13.49
2017-08-19T09:44:09.980Z,13.61
2017-08-19T09:45:03.995Z,13.81
2017-08-19T09:45:59.051Z,13.98
2017-08-19T09:46:59.041Z,14.25
2017-08-19T09:47:53.134Z,14.20
2017-08-19T09:48:48.199Z,14.30
2017-08-19T09:49:42.254Z,14.38
2017-08-19T09:50:36.352Z,14.36
2017-08-19T09:51:36.291Z,14.22
2017-08-19T09:52:30.430Z,14.27
2017-08-19T09:53:24.386Z,14.35
2017-08-19T09:54:18.567Z,14.50
2017-08-19T09:55:12.553Z,14.46
2017-08-19T09:56:07.601Z,14.73
2017-08-19T09:57:02.562Z,14.75
2017-08-19T09:57:57.652Z,14.92
2017-08-19T09:58:51.735Z,14.94
2017-08-19T09:59:45.800Z,15.14
2017-08-19T10:00:45.866Z,15.42
2017-08-19T10:01:40.859Z,16.16
2017-08-19T10:02:34.970Z,15.87
2017-08-19T10:03:29.972Z,15.42
2017-08-19T10:04:30.978Z,15.79
2017-08-19T10:05:26.041Z,16.54
2017-08-19T10:06:20.066Z,16.30
2017-08-19T10:07:14.152Z,16.41
2017-08-19T10:08:14.164Z,16.51
2017-08-19T10:09:03.209Z,16.94
2017-08-19T10:09:57.271Z,17.68
2017-08-19T10:10:52.378Z,18.40
2017-08-19T10:11:46.442Z,18.70
2017-08-19T10:12:40.486Z,18.59
2017-08-19T10:13:35.479Z,18.34
2017-08-19T10:14:29.563Z,19.02
2017-08-19T10:15:17.612Z,20.13
2017-08-19T10:16:11.712Z,20.62
2017-08-19T10:17:05.727Z,20.95
2017-08-19T10:18:00.801Z,20.85
2017-08-19T10:19:00.904Z,20.50
2017-08-19T10:19:54.929Z,19.97
2017-08-19T10:20:48.943Z,19.21
2017-08-19T10:21:43.936Z,18.93
2017-08-19T10:22:38.128Z,18.09
2017-08-19T10:23:38.087Z,17.76
2017-08-19T10:24:32.190Z,17.47
2017-08-19T10:25:26.270Z,17.76
2017-08-19T10:26:20.273Z,17.92
2017-08-19T10:27:15.355Z,17.62
2017-08-19T10:28:10.416Z,18.32
2017-08-19T10:29:05.449Z,19.09
2017-08-19T10:30:00.448Z,18.98
2017-08-19T10:30:55.517Z,19.74
2017-08-19T10:31:44.561Z,19.04
2017-08-19T10:32:38.695Z,19.77
2017-08-19T10:33:33.687Z,19.35
2017-08-19T10:34:28.802Z,19.66
2017-08-19T10:35:22.801Z,19.53
2017-08-19T10:36:11.833Z,20.87
2017-08-19T10:37:06.859Z,21.42
2017-08-19T10:38:01.949Z,21.83
2017-08-19T10:38:55.981Z,21.96
2017-08-19T10:39:50.072Z,21.81
2017-08-19T10:40:44.096Z,21.72
2017-08-19T10:41:38.259Z,21.60
2017-08-19T10:42:27.312Z,21.78
2017-08-19T10:43:21.256Z,22.04
2017-08-19T10:44:10.395Z,22.08
2017-08-19T10:44:59.387Z,22.02
2017-08-19T10:45:48.491Z,21.86
2017-08-19T10:46:36.565Z,21.12
2017-08-19T10:47:37.788Z,21.01
2017-08-19T10:48:37.635Z,21.30
2017-08-19T10:49:26.825Z,21.58
2017-08-19T10:50:26.762Z,21.15
2017-08-19T10:51:20.784Z,20.96
2017-08-19T10:52:15.820Z,21.34
2017-08-19T10:53:10.957Z,21.86
2017-08-19T10:53:59.970Z,22.14
2017-08-19T10:55:00.132Z,22.61
2017-08-19T10:55:54.087Z,22.80
2017-08-19T10:56:48.090Z,22.91
2017-08-19T10:57:36.226Z,22.58
2017-08-19T10:58:31.377Z,22.57
2017-08-19T10:59:31.266Z,22.96
2017-08-19T11:00:25.379Z,22.81
2017-08-19T11:01:26.380Z,22.92
2017-08-19T11:02:15.529Z,23.18
2017-08-19T11:03:04.540Z,22.90
2017-08-19T11:04:04.656Z,22.74
2017-08-19T11:04:58.698Z,23.13
2017-08-19T11:05:52.694Z,23.21
2017-08-19T11:06:46.766Z,23.36
2017-08-19T11:07:40.977Z,23.86
2017-08-19T11:08:29.977Z,23.86
2017-08-19T11:09:17.973Z,24.17
2017-08-19T11:10:13.083Z,24.18
2017-08-19T11:11:14.171Z,24.32
2017-08-19T11:12:09.177Z,24.04
2017-08-19T11:12:57.246Z,23.91
2017-08-19T11:13:52.294Z,23.78
2017-08-19T11:14:52.301Z,23.84
2017-08-19T11:15:46.361Z,23.87
2017-08-19T11:16:46.499Z,23.82
2017-08-19T11:17:41.551Z,23.40
2017-08-19T11:18:30.575Z,23.09
2017-08-19T11:19:25.644Z,22.83
2017-08-19T11:20:20.748Z,22.69
2017-08-19T11:21:15.759Z,22.20
2017-08-19T11:22:10.748Z,21.73
2017-08-19T11:23:04.822Z,21.61
2017-08-19T11:23:53.971Z,21.19
2017-08-19T11:24:42.049Z,21.42
2017-08-19T11:25:37.085Z,21.48
2017-08-19T11:26:26.165Z,21.51
2017-08-19T11:27:21.163Z,21.71
2017-08-19T11:28:16.180Z,21.98
2017-08-19T11:29:10.343Z,22.08
2017-08-19T11:30:04.332Z,22.08
2017-08-19T11:30:58.427Z,21.97
2017-08-19T11:31:58.487Z,22.11
2017-08-19T11:32:46.549Z,22.23
2017-08-19T11:33:40.540Z,22.32
2017-08-19T11:34:29.629Z,22.28
2017-08-19T11:35:17.744Z,22.42
2017-08-19T11:36:11.854Z,22.45
2017-08-19T11:37:06.857Z,22.23
2017-08-19T11:37:55.957Z,22.05
2017-08-19T11:38:50.886Z,21.92
2017-08-19T11:39:50.992Z,21.46
2017-08-19T11:40:40.035Z,21.43
2017-08-19T11:41:34.124Z,21.60